Time;durP1;ratioP1;P1;durP2;ratioP2;P2;SDS_P1;SDS_P2;PMS_P1;PMS_P2;Temp;Humidity;BMP_temperature;BMP_pressure;BME280_temperature;BME280_humidity;BME280_pressure;Samples;Min_cycle;Max_cycle;Signal;HPM_P1;HPM_P2
2022/06/05 00:00:05;;;;;;;5.93;2.85;;;20.30;55.40;;;;;;5090580;28;20084;-72
2022/06/05 00:02:42;;;;;;;2.90;2.40;;;20.30;55.40;;;;;;5103203;28;20126;-72
2022/06/05 00:05:12;;;;;;;3.08;2.55;;;20.30;58.30;;;;;;5110310;28;20130;-72
2022/06/05 00:07:43;;;;;;;3.25;2.40;;;20.20;59.30;;;;;;5112075;28;20555;-72
2022/06/05 00:10:13;;;;;;;3.55;2.42;;;20.30;55.40;;;;;;5102628;28;20134;-72
2022/06/05 00:12:43;;;;;;;3.83;2.70;;;20.90;59.60;;;;;;5110793;28;20055;-72
2022/06/05 00:15:10;;;;;;;3.78;2.40;;;20.20;59.40;;;;;;5090447;28;20082;-72
2022/06/05 00:17:39;;;;;;;4.38;2.75;;;20.50;60.20;;;;;;5102724;28;20055;-72
2022/06/05 00:20:07;;;;;;;3.22;2.55;;;20.60;60.20;;;;;;5111017;28;20056;-72
2022/06/05 00:22:34;;;;;;;3.47;2.40;;;20.20;55.40;;;;;;5112090;28;20072;-72
2022/06/05 00:25:01;;;;;;;5.13;2.72;;;19.50;57.80;;;;;;5110509;28;20051;-71
2022/06/05 00:27:29;;;;;;;2.55;2.35;;;20.20;55.40;;;;;;5093128;28;20059;-72
2022/06/05 00:30:02;;;;;;;3.92;2.17;;;20.20;59.30;;;;;;5090378;28;20130;-72
2022/06/05 00:32:36;;;;;;;2.97;2.35;;;19.80;59.60;;;;;;5090091;28;20147;-72
2022/06/05 00:35:04;;;;;;;3.08;2.40;;;19.80;57.60;;;;;;5089584;28;20079;-72
2022/06/05 00:37:35;;;;;;;3.72;2.38;;;20.10;55.40;;;;;;5091434;28;20382;-72
2022/06/05 00:40:24;;;;;;;3.05;2.30;;;20.00;59.40;;;;;;5089790;28;20111;-72
2022/06/05 00:42:50;;;;;;;2.75;2.30;;;19.00;58.60;;;;;;5090629;28;20048;-72
2022/06/05 00:45:17;;;;;;;3.25;2.55;;;20.10;55.40;;;;;;5089860;28;20055;-71
2022/06/05 00:47:44;;;;;;;3.63;2.25;;;20.10;55.40;;;;;;5089957;28;20056;-72
2022/06/05 00:50:14;;;;;;;2.70;2.30;;;20.00;59.60;;;;;;5090220;28;20052;-72
2022/06/05 00:52:43;;;;;;;2.92;2.38;;;21.00;60.60;;;;;;5089879;28;20081;-72
2022/06/05 00:55:10;;;;;;;4.85;2.70;;;20.10;58.90;;;;;;5089897;28;20110;-72
2022/06/05 00:57:38;;;;;;;2.97;2.30;;;20.80;59.90;;;;;;5089680;28;20414;-72
2022/06/05 01:00:09;;;;;;;3.00;2.35;;;20.10;55.40;;;;;;5090863;28;20129;-72
2022/06/05 01:02:35;;;;;;;3.00;2.30;;;19.60;59.80;;;;;;5102840;28;20139;-71
2022/06/05 01:05:02;;;;;;;2.47;2.17;;;20.10;58.00;;;;;;5110849;28;20047;-72
2022/06/05 01:07:31;;;;;;;3.95;2.58;;;20.00;59.90;;;;;;5109301;28;20059;-71
2022/06/05 01:09:58;;;;;;;2.85;2.42;;;20.10;55.50;;;;;;5111110;28;20712;-72
2022/06/05 01:12:30;;;;;;;3.03;2.33;;;20.70;59.50;;;;;;5109801;28;20051;-72
2022/06/05 01:15:02;;;;;;;2.70;2.40;;;20.00;58.30;;;;;;5108332;28;20054;-72
2022/06/05 01:17:34;;;;;;;3.25;2.30;;;20.00;55.50;;;;;;5091810;28;20052;-72
2022/06/05 01:20:06;;;;;;;3.58;2.63;;;19.80;59.20;;;;;;5089231;28;20087;-72
2022/06/05 01:23:06;;;;;;;3.00;2.60;;;20.00;55.50;;;;;;5089400;28;20051;-72
2022/06/05 01:25:43;;;;;;;2.47;2.28;;;20.00;59.90;;;;;;5086482;28;20059;-72
2022/06/05 01:28:11;;;;;;;3.53;2.28;;;19.80;59.80;;;;;;5090357;28;20052;-72
2022/06/05 01:30:43;;;;;;;3.88;2.70;;;20.10;59.70;;;;;;5090478;28;20123;-71
2022/06/05 01:33:14;;;;;;;2.20;2.00;;;19.90;59.20;;;;;;5090156;28;20134;-72
2022/06/05 01:35:43;;;;;;;3.42;2.33;;;19.90;55.50;;;;;;5088980;28;20139;-72
2022/06/05 01:38:12;;;;;;;3.15;2.20;;;18.80;59.00;;;;;;5090254;28;20519;-72
2022/06/05 01:40:45;;;;;;;2.58;2.28;;;19.90;55.50;;;;;;5088589;28;20052;-72
2022/06/05 01:43:13;;;;;;;2.88;2.30;;;19.90;55.50;;;;;;5088824;28;20048;-72
2022/06/05 01:45:42;;;;;;;2.97;2.38;;;19.90;55.50;;;;;;5089860;28;20048;-72
2022/06/05 01:48:12;;;;;;;3.47;2.38;;;20.50;60.00;;;;;;5088582;28;20090;-72
2022/06/05 01:50:40;;;;;;;2.50;2.10;;;19.90;55.50;;;;;;5089921;28;20079;-72
2022/06/05 01:53:09;;;;;;;3.03;2.50;;;19.90;59.30;;;;;;5089622;28;20097;-72
2022/06/05 01:55:37;;;;;;;3.88;2.42;;;20.80;60.30;;;;;;5087866;28;20047;-72
2022/06/05 01:58:06;;;;;;;3.35;2.42;;;19.70;59.50;;;;;;5088759;28;20048;-72
2022/06/05 02:00:33;;;;;;;2.78;2.30;;;19.80;55.50;;;;;;5089939;28;20051;-72
2022/06/05 02:03:01;;;;;;;3.28;2.35;;;19.90;59.90;;;;;;5104631;28;20051;-72
2022/06/05 02:05:32;;;;;;;3.22;2.40;;;19.80;55.50;;;;;;5104592;28;20618;-72
2022/06/05 02:07:59;;;;;;;3.60;2.65;;;19.80;55.50;;;;;;5089626;28;20054;-72
2022/06/05 02:10:28;;;;;;;3.35;2.55;;;19.80;60.50;;;;;;5102426;28;20139;-72
2022/06/05 02:12:55;;;;;;;3.78;2.53;;;19.80;55.50;;;;;;5110072;27;20494;-72
2022/06/05 02:15:23;;;;;;;3.83;2.58;;;19.80;59.10;;;;;;5130227;27;20142;-72
2022/06/05 02:17:50;;;;;;;3.85;2.60;;;19.80;55.60;;;;;;5128037;27;20047;-71
2022/06/05 02:20:17;;;;;;;4.07;2.70;;;19.60;60.10;;;;;;5129151;27;20055;-72
2022/06/05 02:22:46;;;;;;;3.00;2.53;;;19.70;59.70;;;;;;5103770;27;20071;-72
2022/06/05 02:25:13;;;;;;;3.28;2.40;;;19.70;55.50;;;;;;5088033;28;20388;-72
2022/06/05 02:27:39;;;;;;;2.80;2.20;;;19.70;60.20;;;;;;5087904;28;20062;-72
2022/06/05 02:30:08;;;;;;;2.92;2.60;;;19.50;59.30;;;;;;5088113;28;20055;-72
2022/06/05 02:32:42;;;;;;;3.28;2.47;;;19.70;55.60;;;;;;5087567;28;20526;-72
2022/06/05 02:35:18;;;;;;;2.88;2.50;;;18.80;58.40;;;;;;5087899;28;20147;-72
2022/06/05 02:37:52;;;;;;;2.80;2.50;;;19.70;55.60;;;;;;5088091;28;20131;-74
2022/06/05 02:40:23;;;;;;;3.60;2.60;;;19.70;55.60;;;;;;5088102;28;20516;-72
2022/06/05 02:42:54;;;;;;;2.97;2.40;;;19.40;59.00;;;;;;5087914;28;20164;-72
2022/06/05 02:45:24;;;;;;;3.42;2.42;;;19.60;55.50;;;;;;5087534;28;20063;-72
2022/06/05 02:47:54;;;;;;;2.67;2.10;;;19.60;55.60;;;;;;5087534;28;20127;-73
2022/06/05 02:50:24;;;;;;;2.70;2.50;;;19.60;55.60;;;;;;5087853;28;20138;-73
2022/06/05 02:52:51;;;;;;;2.97;2.60;;;19.70;59.60;;;;;;5087755;28;20066;-72
2022/06/05 02:55:20;;;;;;;3.63;2.70;;;19.60;55.60;;;;;;5088854;28;20135;-73
2022/06/05 02:57:46;;;;;;;3.78;2.50;;;19.70;60.50;;;;;;5087521;28;20040;-72
2022/06/05 03:00:14;;;;;;;2.88;2.53;;;19.60;55.60;;;;;;5088561;28;20133;-72
2022/06/05 03:05:27;;;;;;;2.92;2.67;;;19.70;60.70;;;;;;5107864;28;20048;-72
2022/06/05 03:07:53;;;;;;;2.92;2.63;;;19.50;59.90;;;;;;5107436;28;20080;-72
2022/06/05 03:10:20;;;;;;;4.15;2.72;;;19.60;55.60;;;;;;5108544;28;20272;-71
2022/06/05 03:12:47;;;;;;;2.85;2.42;;;19.50;59.60;;;;;;5094927;28;20047;-71
2022/06/05 03:15:15;;;;;;;3.70;2.47;;;19.50;59.80;;;;;;5128611;28;20051;-71
2022/06/05 03:17:42;;;;;;;3.38;2.50;;;18.10;59.60;;;;;;5128322;28;20057;-71
2022/06/05 03:20:10;;;;;;;3.55;2.47;;;19.50;55.60;;;;;;5128350;28;20074;-71
2022/06/05 03:22:38;;;;;;;3.33;2.58;;;20.20;59.70;;;;;;5128387;28;20058;-71
2022/06/05 03:25:06;;;;;;;2.83;2.50;;;20.00;59.00;;;;;;5129240;28;20050;-71
2022/06/05 03:27:32;;;;;;;2.70;2.50;;;19.50;55.60;;;;;;5128205;28;20539;-71
2022/06/05 03:30:01;;;;;;;3.67;2.67;;;19.00;59.70;;;;;;5108825;28;20139;-71
2022/06/05 03:32:28;;;;;;;4.13;2.80;;;19.50;55.60;;;;;;5111856;28;20134;-74
2022/06/05 03:34:54;;;;;;;3.17;2.70;;;19.50;58.40;;;;;;5106266;28;20071;-71
2022/06/05 03:37:21;;;;;;;3.30;2.75;;;19.50;59.40;;;;;;5102410;28;20142;-71
2022/06/05 03:39:49;;;;;;;3.15;2.65;;;19.50;55.60;;;;;;5100405;28;20051;-72
2022/06/05 03:42:16;;;;;;;4.13;2.90;;;20.20;60.20;;;;;;5100623;28;20118;-72
2022/06/05 03:44:43;;;;;;;3.92;2.90;;;19.50;60.30;;;;;;5099048;28;20110;-71
2022/06/05 03:47:11;;;;;;;3.20;2.90;;;19.30;59.60;;;;;;5100976;28;20043;-71
2022/06/05 03:49:39;;;;;;;3.53;2.75;;;19.50;55.70;;;;;;5101781;28;20556;-71
2022/06/05 03:52:06;;;;;;;2.85;2.40;;;19.70;59.80;;;;;;5101337;28;20046;-71
2022/06/05 03:54:33;;;;;;;5.53;3.22;;;19.50;55.70;;;;;;5100454;28;20126;-73
2022/06/05 03:57:02;;;;;;;3.45;2.78;;;19.40;60.40;;;;;;5101662;28;20047;-73
2022/06/05 03:59:29;;;;;;;3.40;2.60;;;19.30;60.00;;;;;;5099126;28;20123;-71
2022/06/05 04:01:56;;;;;;;3.33;2.67;;;19.20;59.30;;;;;;5095916;28;20076;-71
2022/06/05 04:04:23;;;;;;;2.85;2.50;;;19.40;55.60;;;;;;5101536;28;20047;-72
2022/06/05 04:06:49;;;;;;;3.10;2.55;;;19.20;59.20;;;;;;5100281;28;20044;-71
2022/06/05 04:09:16;;;;;;;2.90;2.60;;;19.60;60.40;;;;;;5100377;28;20138;-71
2022/06/05 04:11:43;;;;;;;3.25;2.70;;;20.30;60.00;;;;;;5102563;28;20068;-72
2022/06/05 04:14:11;;;;;;;3.13;2.78;;;19.50;60.00;;;;;;5102009;28;20079;-71
2022/06/05 04:16:40;;;;;;;3.17;2.63;;;19.60;59.80;;;;;;5099289;28;20131;-71
2022/06/05 04:19:07;;;;;;;3.55;2.88;;;19.50;55.70;;;;;;5100925;28;20071;-72
2022/06/05 04:21:34;;;;;;;3.40;3.08;;;19.40;55.60;;;;;;5101447;28;20051;-72
2022/06/05 04:24:01;;;;;;;3.15;2.70;;;19.40;59.80;;;;;;5101132;28;20047;-71
2022/06/05 04:26:29;;;;;;;3.97;2.97;;;19.50;55.60;;;;;;5100776;28;20486;-72
2022/06/05 04:28:56;;;;;;;2.90;2.60;;;19.50;59.40;;;;;;5099456;28;20044;-72
2022/06/05 04:31:26;;;;;;;3.15;2.80;;;20.70;61.30;;;;;;5100340;28;20152;-72
2022/06/05 04:33:54;;;;;;;3.70;2.72;;;18.30;58.70;;;;;;5110981;28;20074;-72
2022/06/05 04:36:20;;;;;;;3.33;2.80;;;19.50;55.50;;;;;;5111232;28;20134;-74
2022/06/05 04:38:49;;;;;;;2.95;2.60;;;18.70;59.10;;;;;;5094703;28;20130;-74
2022/06/05 04:41:16;;;;;;;2.92;2.63;;;19.50;55.50;;;;;;5090685;28;20532;-71
2022/06/05 04:43:42;;;;;;;3.20;2.42;;;19.50;55.50;;;;;;5092362;28;20112;-72
2022/06/05 04:46:09;;;;;;;3.85;2.80;;;19.30;59.70;;;;;;5092747;28;20108;-72
2022/06/05 04:48:37;;;;;;;3.15;2.85;;;19.50;55.50;;;;;;5108788;28;20047;-72
2022/06/05 04:51:04;;;;;;;3.33;2.85;;;19.40;60.80;;;;;;5114461;28;20049;-71
2022/06/05 04:53:31;;;;;;;3.28;2.97;;;19.80;59.60;;;;;;5113049;28;20052;-72
2022/06/05 04:55:58;;;;;;;3.78;3.10;;;19.50;55.60;;;;;;5112534;28;20079;-72
2022/06/05 04:58:24;;;;;;;3.67;2.97;;;19.60;60.10;;;;;;5114009;28;20146;-72
2022/06/05 05:00:51;;;;;;;3.78;2.85;;;19.40;59.50;;;;;;5113641;28;20130;-72
2022/06/05 05:03:18;;;;;;;4.45;2.78;;;20.50;60.50;;;;;;5112609;28;20043;-72
2022/06/05 05:05:46;;;;;;;2.92;2.58;;;19.60;60.30;;;;;;5112914;28;20139;-72
2022/06/05 05:08:13;;;;;;;3.70;2.70;;;19.60;55.60;;;;;;5112567;28;20077;-72
2022/06/05 05:10:39;;;;;;;3.05;2.75;;;19.70;59.90;;;;;;5112576;28;20075;-72
2022/06/05 05:13:06;;;;;;;3.10;2.80;;;19.60;61.00;;;;;;5112340;28;20059;-72
2022/06/05 05:15:33;;;;;;;3.25;2.60;;;19.60;55.50;;;;;;5112578;28;20055;-71
2022/06/05 05:17:59;;;;;;;3.75;2.85;;;19.70;55.60;;;;;;5112755;28;20134;-72
2022/06/05 05:20:26;;;;;;;3.95;3.00;;;19.50;59.60;;;;;;5104512;28;20054;-72
2022/06/05 05:22:55;;;;;;;3.88;2.80;;;19.60;60.30;;;;;;5091741;28;20060;-72
2022/06/05 05:25:22;;;;;;;3.63;2.60;;;20.30;60.40;;;;;;5093241;28;20048;-72
2022/06/05 05:27:48;;;;;;;3.65;3.17;;;20.70;60.70;;;;;;5091924;28;20044;-72
2022/06/05 05:30:15;;;;;;;3.08;2.78;;;19.60;60.30;;;;;;5091575;28;20058;-72
2022/06/05 05:32:42;;;;;;;3.83;2.67;;;19.80;59.50;;;;;;5092030;28;20557;-72
2022/06/05 05:35:10;;;;;;;4.38;2.58;;;19.70;58.50;;;;;;5091709;28;20253;-72
2022/06/05 05:37:36;;;;;;;3.17;2.70;;;19.80;60.00;;;;;;5104837;28;20051;-72
2022/06/05 05:42:50;;;;;;;3.20;2.70;;;19.60;60.00;;;;;;5111679;28;20055;-72
2022/06/05 05:45:17;;;;;;;3.92;3.03;;;19.20;59.90;;;;;;5112384;28;20135;-72
2022/06/05 05:47:44;;;;;;;3.00;2.70;;;19.90;55.50;;;;;;5112726;28;20051;-72
2022/06/05 05:50:13;;;;;;;3.55;2.90;;;20.00;55.40;;;;;;5111981;28;20130;-72
2022/06/05 05:52:39;;;;;;;3.55;3.00;;;20.10;55.30;;;;;;5111736;28;20047;-71
2022/06/05 05:55:11;;;;;;;4.10;3.38;;;20.20;58.20;;;;;;5102209;28;20055;-72
2022/06/05 05:57:39;;;;;;;3.67;2.90;;;20.10;55.00;;;;;;5112244;28;20068;-72
2022/06/05 06:00:09;;;;;;;3.25;2.95;;;20.00;59.50;;;;;;5111199;28;20103;-71
2022/06/05 06:02:35;;;;;;;3.65;3.10;;;20.20;59.40;;;;;;5096778;28;20058;-71
2022/06/05 06:05:02;;;;;;;3.20;2.90;;;19.90;57.40;;;;;;5088338;28;20052;-72
2022/06/05 06:07:29;;;;;;;2.97;2.60;;;20.10;58.40;;;;;;5088295;28;20052;-72
2022/06/05 06:09:56;;;;;;;3.78;3.05;;;20.20;54.90;;;;;;5089746;28;20139;-72
2022/06/05 06:12:24;;;;;;;3.45;2.78;;;20.20;54.80;;;;;;5088090;28;20410;-72
2022/06/05 06:14:51;;;;;;;3.05;2.75;;;20.00;59.00;;;;;;5125906;27;20043;-72
2022/06/05 06:17:18;;;;;;;3.70;3.20;;;20.40;59.20;;;;;;5128933;27;20122;-72
2022/06/05 06:19:44;;;;;;;3.03;2.78;;;20.60;59.80;;;;;;5130067;27;20082;-72
2022/06/05 06:22:11;;;;;;;5.05;3.70;;;19.50;58.80;;;;;;5128927;27;20043;-72
2022/06/05 06:24:38;;;;;;;4.72;3.00;;;20.30;55.00;;;;;;5128989;27;20062;-72
2022/06/05 06:27:05;;;;;;;4.57;3.35;;;20.30;55.10;;;;;;5099976;27;20060;-72
2022/06/05 06:29:35;;;;;;;8.35;2.97;;;20.90;59.10;;;;;;5094677;28;20390;-72
2022/06/05 06:32:01;;;;;;;3.35;2.80;;;20.30;58.80;;;;;;5108629;28;20059;-72
2022/06/05 06:34:28;;;;;;;7.05;3.10;;;20.70;59.20;;;;;;5108082;28;20062;-72
2022/06/05 06:36:55;;;;;;;3.60;2.88;;;20.20;59.20;;;;;;5101347;28;20055;-73
2022/06/05 06:39:21;;;;;;;5.50;3.22;;;20.40;54.90;;;;;;5097572;28;20463;-73
2022/06/05 06:41:48;;;;;;;5.07;3.03;;;21.50;59.50;;;;;;5098315;28;20460;-73
2022/06/05 06:44:15;;;;;;;5.00;2.95;;;20.40;54.80;;;;;;5094968;28;20695;-73
2022/06/05 06:46:43;;;;;;;3.40;2.90;;;20.40;54.80;;;;;;5097486;28;20139;-73
2022/06/05 06:49:10;;;;;;;4.60;3.00;;;20.50;54.80;;;;;;5096320;28;20146;-73
2022/06/05 06:51:37;;;;;;;4.30;3.10;;;20.40;58.90;;;;;;5100354;28;20130;-73
2022/06/05 06:54:04;;;;;;;3.42;2.78;;;19.90;58.20;;;;;;5099284;28;20574;-73
2022/06/05 06:56:32;;;;;;;4.65;3.10;;;20.50;54.70;;;;;;5096608;28;20795;-73
2022/06/05 06:58:58;;;;;;;4.40;2.83;;;20.50;58.10;;;;;;5100247;28;20070;-73
2022/06/05 07:01:25;;;;;;;4.78;3.08;;;21.60;59.40;;;;;;5096593;28;20676;-73
2022/06/05 07:03:53;;;;;;;3.88;3.20;;;20.70;58.70;;;;;;5096383;28;20075;-72
2022/06/05 07:06:20;;;;;;;3.80;2.90;;;20.70;54.60;;;;;;5089324;28;20056;-73
2022/06/05 07:08:47;;;;;;;3.20;2.90;;;20.10;58.00;;;;;;5102348;28;20522;-72
2022/06/05 07:11:14;;;;;;;3.65;2.60;;;20.70;58.30;;;;;;5108161;28;20061;-73
2022/06/05 07:13:41;;;;;;;3.20;2.90;;;21.10;58.20;;;;;;5107626;28;20131;-72
2022/06/05 07:16:08;;;;;;;3.00;2.70;;;21.00;54.20;;;;;;5096960;28;20091;-72
2022/06/05 07:18:35;;;;;;;3.20;2.80;;;20.80;57.80;;;;;;5103784;28;20131;-72
2022/06/05 07:21:08;;;;;;;3.67;2.90;;;21.10;54.10;;;;;;5107984;28;20127;-71
2022/06/05 07:23:35;;;;;;;3.90;2.92;;;21.20;57.50;;;;;;5108244;28;20052;-72
2022/06/05 07:26:02;;;;;;;3.40;2.78;;;22.10;58.10;;;;;;5108361;28;20082;-72
2022/06/05 07:28:29;;;;;;;3.92;2.60;;;21.30;53.70;;;;;;5108411;28;20071;-72
2022/06/05 07:30:56;;;;;;;3.15;2.65;;;21.40;53.50;;;;;;5093069;28;20083;-72
2022/06/05 07:33:23;;;;;;;3.58;2.60;;;21.30;57.90;;;;;;5088088;28;20080;-72
2022/06/05 07:35:56;;;;;;;3.22;2.83;;;22.80;59.10;;;;;;5088118;28;20127;-72
2022/06/05 07:38:24;;;;;;;3.30;2.75;;;21.40;57.30;;;;;;5087826;28;20044;-72
2022/06/05 07:40:51;;;;;;;2.70;2.50;;;21.70;53.10;;;;;;5096283;28;20508;-73
2022/06/05 07:43:20;;;;;;;2.78;2.53;;;21.70;53.00;;;;;;5107156;28;20135;-72
2022/06/05 07:45:47;;;;;;;3.38;2.60;;;22.20;57.00;;;;;;5107114;28;20061;-72
2022/06/05 07:48:14;;;;;;;2.90;2.53;;;21.80;52.90;;;;;;5107422;28;20150;-73
2022/06/05 07:56:06;;;;;;;2.90;2.38;;;21.90;52.70;;;;;;5097743;28;20043;-73
2022/06/05 07:58:33;;;;;;;3.13;2.65;;;21.50;56.60;;;;;;5097119;28;20590;-73
2022/06/05 08:01:00;;;;;;;5.65;2.80;;;22.00;52.70;;;;;;5100688;28;20062;-72
2022/06/05 08:03:26;;;;;;;3.80;2.70;;;21.90;56.40;;;;;;5096589;28;20058;-72
2022/06/05 08:05:53;;;;;;;3.17;2.60;;;22.10;56.90;;;;;;5096057;28;20071;-73
2022/06/05 08:08:20;;;;;;;3.10;2.50;;;22.10;52.60;;;;;;5095744;28;20143;-72
2022/06/05 08:10:47;;;;;;;4.95;2.80;;;21.10;55.50;;;;;;5095278;28;20745;-72
2022/06/05 08:13:15;;;;;;;4.63;2.83;;;22.10;52.60;;;;;;5097888;28;20077;-73
2022/06/05 08:15:44;;;;;;;3.17;2.67;;;22.30;56.80;;;;;;5097863;28;20075;-72
2022/06/05 08:18:11;;;;;;;4.15;2.70;;;21.30;56.00;;;;;;5096494;28;20123;-74
2022/06/05 08:20:37;;;;;;;3.25;2.50;;;22.10;52.50;;;;;;5098515;28;20067;-73
2022/06/05 08:23:04;;;;;;;3.42;2.65;;;22.10;52.50;;;;;;5094912;27;20104;-73
2022/06/05 08:25:31;;;;;;;5.25;2.70;;;22.30;56.80;;;;;;5098245;28;20540;-73
2022/06/05 08:27:58;;;;;;;2.42;2.22;;;22.10;52.60;;;;;;5100711;28;20119;-71
2022/06/05 08:30:26;;;;;;;3.05;2.72;;;22.10;52.50;;;;;;5101823;28;20050;-72
2022/06/05 08:32:53;;;;;;;3.58;2.70;;;22.10;52.50;;;;;;5109176;28;20108;-73
2022/06/05 08:35:20;;;;;;;4.07;2.50;;;22.10;56.80;;;;;;5110470;28;20075;-72
2022/06/05 08:43:32;;;;;;;5.43;2.78;;;22.10;52.80;;;;;;5095701;28;20130;-72
2022/06/05 08:46:03;;;;;;;4.07;3.15;;;22.10;53.20;;;;;;5110735;28;20468;-73
2022/06/05 08:48:32;;;;;;;5.75;2.92;;;22.10;53.30;;;;;;5110490;28;20238;-72
2022/06/05 08:51:03;;;;;;;4.38;2.92;;;22.00;53.20;;;;;;5110574;28;20093;-73
2022/06/05 08:53:37;;;;;;;3.72;2.75;;;22.10;53.40;;;;;;5109890;28;20540;-72
2022/06/05 08:56:04;;;;;;;3.13;2.67;;;22.00;53.30;;;;;;5094662;28;20059;-72
2022/06/05 08:58:33;;;;;;;4.05;2.53;;;22.00;53.30;;;;;;5089836;28;20494;-72
2022/06/05 09:01:04;;;;;;;3.08;2.58;;;22.80;57.50;;;;;;5089855;28;20051;-73
2022/06/05 09:03:34;;;;;;;3.67;2.75;;;22.00;53.30;;;;;;5109910;28;20055;-72
2022/06/05 09:06:03;;;;;;;2.85;2.30;;;22.00;53.30;;;;;;5110243;28;20498;-72
2022/06/05 09:08:32;;;;;;;3.85;2.60;;;22.30;53.50;;;;;;5110021;28;20058;-72
2022/06/05 09:11:00;;;;;;;2.88;2.55;;;21.90;53.20;;;;;;5109247;28;20147;-71
2022/06/05 09:13:29;;;;;;;3.97;2.55;;;21.90;53.30;;;;;;5110248;28;20051;-71
2022/06/05 09:15:58;;;;;;;4.70;2.90;;;21.90;53.30;;;;;;5110098;28;20358;-73
2022/06/05 09:18:30;;;;;;;6.95;2.67;;;21.90;53.30;;;;;;5109302;28;20047;-71
2022/06/05 09:20:57;;;;;;;5.85;3.15;;;21.90;57.00;;;;;;5109863;28;20426;-72
2022/06/05 09:23:36;;;;;;;4.43;2.70;;;22.00;53.40;;;;;;5109419;28;20055;-72
2022/06/05 09:26:06;;;;;;;5.90;2.70;;;21.70;57.70;;;;;;5109757;28;20505;-72
2022/06/05 09:28:47;;;;;;;3.60;2.80;;;22.20;57.20;;;;;;5108072;28;20126;-72
2022/06/05 09:31:34;;;;;;;4.38;2.90;;;22.00;53.40;;;;;;5109477;28;20048;-71
2022/06/05 09:34:05;;;;;;;3.75;2.83;;;22.00;53.50;;;;;;5109552;28;20542;-71
2022/06/05 09:36:32;;;;;;;2.70;2.50;;;22.00;53.50;;;;;;5109686;28;20130;-71
2022/06/05 09:39:00;;;;;;;3.28;2.95;;;22.00;53.40;;;;;;5110592;28;20490;-71
2022/06/05 09:41:37;;;;;;;3.20;2.90;;;22.00;57.50;;;;;;5110820;28;20557;-71
2022/06/05 09:44:21;;;;;;;4.95;3.00;;;22.00;53.90;;;;;;5103700;28;20048;-71
2022/06/05 09:46:59;;;;;;;3.67;2.80;;;21.80;56.80;;;;;;5089020;28;20056;-71
2022/06/05 09:49:32;;;;;;;5.18;2.95;;;21.60;57.40;;;;;;5089291;28;20048;-73
2022/06/05 09:51:59;;;;;;;3.47;2.88;;;22.10;57.40;;;;;;5089054;28;20505;-73
2022/06/05 09:54:29;;;;;;;4.22;2.67;;;22.10;53.30;;;;;;5087840;28;20445;-72
2022/06/05 09:59:49;;;;;;;3.03;2.70;;;22.10;53.40;;;;;;5088795;28;20139;-73
2022/06/05 10:02:19;;;;;;;4.05;3.17;;;22.20;53.70;;;;;;5107622;28;20060;-74
2022/06/05 10:04:47;;;;;;;3.03;2.72;;;22.10;53.40;;;;;;5108900;28;20511;-74
2022/06/05 10:07:17;;;;;;;5.40;3.05;;;22.20;53.50;;;;;;5108664;28;20134;-73
2022/06/05 10:09:45;;;;;;;4.82;2.85;;;22.20;53.50;;;;;;5108942;28;20130;-73
2022/06/05 10:12:16;;;;;;;2.83;2.58;;;22.20;53.50;;;;;;5109245;28;20460;-73
2022/06/05 10:14:47;;;;;;;2.83;2.60;;;22.20;53.50;;;;;;5108458;28;20147;-73
2022/06/05 10:17:37;;;;;;;3.15;2.85;;;21.20;57.50;;;;;;5101738;28;20475;-73
2022/06/05 10:20:27;;;;;;;3.55;3.00;;;22.20;53.50;;;;;;5088448;28;20087;-73
2022/06/05 10:22:58;;;;;;;2.95;2.65;;;22.20;53.60;;;;;;5088037;28;20055;-73
2022/06/05 10:25:28;;;;;;;4.88;3.10;;;22.20;53.70;;;;;;5088249;28;20495;-73
2022/06/05 10:27:56;;;;;;;6.57;2.65;;;22.20;58.50;;;;;;5088204;28;20126;-73
2022/06/05 10:30:26;;;;;;;6.32;2.92;;;22.50;57.40;;;;;;5087699;28;20048;-72
2022/06/05 10:32:56;;;;;;;6.10;3.20;;;22.50;57.50;;;;;;5104323;28;20310;-72
2022/06/05 10:35:26;;;;;;;5.15;3.10;;;22.10;57.70;;;;;;5091103;28;20039;-73
2022/06/05 10:37:54;;;;;;;7.65;3.30;;;22.30;54.20;;;;;;5108934;28;20134;-72
2022/06/05 10:40:25;;;;;;;3.40;3.10;;;22.30;54.20;;;;;;5108002;28;20048;-72
2022/06/05 10:42:57;;;;;;;7.03;3.38;;;22.30;54.10;;;;;;5107853;28;20126;-72
2022/06/05 10:45:34;;;;;;;4.80;2.92;;;22.30;54.00;;;;;;5108541;28;20079;-72
2022/06/05 10:48:09;;;;;;;4.00;2.97;;;22.60;56.90;;;;;;5096372;28;20056;-72
2022/06/05 10:50:38;;;;;;;10.40;3.58;;;22.30;53.90;;;;;;5087581;28;20046;-72
2022/06/05 10:53:08;;;;;;;10.80;3.60;;;22.80;58.20;;;;;;5086925;28;20101;-71
2022/06/05 10:55:50;;;;;;;6.03;3.30;;;22.40;53.90;;;;;;5087963;28;20727;-71
2022/06/05 10:58:19;;;;;;;6.15;3.17;;;22.50;53.90;;;;;;5087921;28;20139;-71
2022/06/05 11:01:04;;;;;;;5.50;2.88;;;22.50;53.90;;;;;;5087843;28;20044;-72
2022/06/05 11:03:42;;;;;;;6.78;3.22;;;22.60;53.80;;;;;;5088622;28;20047;-71
2022/06/05 11:06:21;;;;;;;16.38;3.30;;;22.50;53.90;;;;;;5087557;28;20052;-71
2022/06/05 11:08:53;;;;;;;6.95;3.15;;;22.50;58.40;;;;;;5086832;28;20105;-71
2022/06/05 11:14:14;;;;;;;6.00;3.30;;;22.50;58.50;;;;;;5099508;28;20051;-71
2022/06/05 11:16:43;;;;;;;6.32;3.13;;;22.50;58.50;;;;;;5108127;28;20079;-71
2022/06/05 11:19:15;;;;;;;8.13;3.35;;;22.50;59.20;;;;;;5107677;28;20055;-71
2022/06/05 11:21:44;;;;;;;5.03;3.40;;;22.60;54.80;;;;;;5086529;28;20460;-71
2022/06/05 11:24:20;;;;;;;4.20;3.45;;;22.60;54.90;;;;;;5087492;28;20056;-71
2022/06/05 11:26:52;;;;;;;6.20;3.10;;;22.60;55.10;;;;;;5092763;28;20473;-72
2022/06/05 11:29:23;;;;;;;6.20;2.90;;;22.70;58.90;;;;;;5097446;28;20040;-71
2022/06/05 11:31:57;;;;;;;3.78;3.20;;;22.60;55.10;;;;;;5098110;28;20053;-71
2022/06/05 11:34:32;;;;;;;4.45;3.22;;;22.60;58.80;;;;;;5097416;28;20079;-71
2022/06/05 11:37:15;;;;;;;5.28;3.42;;;22.50;54.40;;;;;;5094967;28;20048;-72
2022/06/05 11:39:45;;;;;;;3.78;2.97;;;22.50;55.00;;;;;;5095847;28;20135;-71
2022/06/05 11:42:17;;;;;;;5.07;3.10;;;22.50;55.00;;;;;;5097989;28;20123;-72
2022/06/05 11:44:46;;;;;;;7.15;3.22;;;22.50;55.00;;;;;;5097945;28;20075;-72
2022/06/05 11:47:29;;;;;;;6.25;3.30;;;22.50;58.50;;;;;;5096572;28;20586;-72
2022/06/05 11:49:58;;;;;;;3.50;3.20;;;22.40;58.90;;;;;;5094146;28;20050;-72
2022/06/05 11:52:27;;;;;;;4.63;3.30;;;22.50;54.90;;;;;;5108674;28;20044;-72
2022/06/05 11:55:02;;;;;;;6.03;3.10;;;22.50;54.90;;;;;;5092365;28;20084;-72
2022/06/05 11:57:34;;;;;;;4.25;3.35;;;22.60;59.10;;;;;;5099117;28;20051;-72
2022/06/05 12:00:06;;;;;;;4.13;3.10;;;22.50;54.90;;;;;;5097900;28;20127;-72
2022/06/05 12:02:39;;;;;;;4.93;3.20;;;22.50;54.70;;;;;;5101549;28;20313;-71
2022/06/05 12:05:10;;;;;;;3.67;3.15;;;22.40;56.70;;;;;;5110378;28;20338;-72
2022/06/05 12:07:38;;;;;;;3.60;3.13;;;22.40;54.70;;;;;;5111706;28;20044;-73
2022/06/05 12:10:08;;;;;;;5.05;3.38;;;22.40;54.70;;;;;;5110986;28;20554;-72
2022/06/05 12:12:36;;;;;;;4.07;3.17;;;22.10;57.70;;;;;;5111038;28;20079;-72
2022/06/05 12:15:07;;;;;;;5.00;3.45;;;22.20;56.30;;;;;;5109662;28;20127;-72
2022/06/05 12:17:38;;;;;;;4.82;3.17;;;22.30;57.70;;;;;;5110299;28;20087;-71
2022/06/05 12:20:06;;;;;;;3.08;2.65;;;21.80;54.30;;;;;;5110027;28;20090;-71
2022/06/05 12:22:37;;;;;;;6.32;3.60;;;22.40;54.70;;;;;;5098596;28;20135;-71
2022/06/05 12:25:15;;;;;;;6.30;3.50;;;22.30;56.50;;;;;;5110554;28;20051;-71
2022/06/05 12:27:54;;;;;;;3.60;3.30;;;22.30;54.70;;;;;;5111644;28;20619;-72
2022/06/05 12:30:23;;;;;;;4.70;3.10;;;22.30;58.50;;;;;;5110596;28;20050;-71
2022/06/05 12:32:54;;;;;;;3.63;3.25;;;22.50;58.30;;;;;;5110077;28;20102;-72
2022/06/05 12:35:24;;;;;;;4.18;3.50;;;22.30;54.80;;;;;;5102529;27;20051;-72
2022/06/05 12:37:56;;;;;;;7.85;4.15;;;22.30;54.90;;;;;;5096079;28;20061;-71
2022/06/05 12:40:25;;;;;;;5.32;3.28;;;22.30;55.00;;;;;;5102738;28;20044;-72
2022/06/05 12:42:53;;;;;;;4.88;3.35;;;22.40;55.10;;;;;;5094995;28;20139;-72
2022/06/05 12:45:23;;;;;;;6.07;3.42;;;22.30;55.00;;;;;;5094781;28;20056;-73
2022/06/05 12:48:02;;;;;;;5.45;3.47;;;22.30;55.00;;;;;;5093871;28;20047;-72
2022/06/05 12:50:40;;;;;;;5.65;3.45;;;22.30;54.90;;;;;;5090031;28;20401;-73
2022/06/05 12:53:12;;;;;;;5.40;3.72;;;22.40;58.90;;;;;;5089524;28;20139;-73
2022/06/05 12:55:43;;;;;;;10.52;6.95;;;22.30;54.90;;;;;;5090160;28;20060;-72
2022/06/05 12:58:16;;;;;;;13.75;8.85;;;22.30;54.90;;;;;;5090824;28;20129;-73
2022/06/05 13:00:48;;;;;;;8.02;5.95;;;22.30;55.00;;;;;;5089648;28;20131;-73
2022/06/05 13:03:22;;;;;;;11.52;7.20;;;22.40;57.70;;;;;;5103415;28;20059;-73
2022/06/05 13:05:50;;;;;;;7.78;5.95;;;22.30;55.10;;;;;;5089539;28;20063;-72
2022/06/05 13:08:21;;;;;;;6.75;5.15;;;22.10;57.90;;;;;;5107465;28;20138;-72
2022/06/05 13:10:50;;;;;;;6.40;4.78;;;22.30;55.10;;;;;;5105615;28;20043;-73
2022/06/05 13:13:22;;;;;;;16.90;9.18;;;22.20;58.40;;;;;;5094624;28;20073;-72
2022/06/05 13:15:52;;;;;;;15.38;9.13;;;22.30;58.20;;;;;;5109520;28;20059;-72
2022/06/05 13:18:23;;;;;;;18.38;10.93;;;21.50;57.10;;;;;;5089657;28;20421;-71